Map

Track Data

SID SEASON NUMBER BASIN SUBBASIN NAME ISO_TIME NATURE LAT LON WMO_WIND WMO_PRES WMO_AGENCY TRACK_TYPE DIST2LAND LANDFALL IFLAG USA_AGENCY USA_ATCF_ID USA_LAT USA_LON USA_RECORD USA_STATUS USA_WIND USA_PRES USA_SSHS USA_R34_NE USA_R34_SE USA_R34_SW USA_R34_NW USA_R50_NE USA_R50_SE USA_R50_SW USA_R50_NW USA_R64_NE USA_R64_SE USA_R64_SW USA_R64_NW USA_POCI USA_ROCI USA_RMW USA_EYE TOKYO_LAT TOKYO_LON TOKYO_GRADE TOKYO_WIND TOKYO_PRES TOKYO_R50_DIR TOKYO_R50_LONG TOKYO_R50_SHORT TOKYO_R30_DIR TOKYO_R30_LONG TOKYO_R30_SHORT TOKYO_LAND CMA_LAT CMA_LON CMA_CAT CMA_WIND CMA_PRES HKO_LAT HKO_LON HKO_CAT HKO_WIND HKO_PRES NEWDELHI_LAT NEWDELHI_LON NEWDELHI_GRADE NEWDELHI_WIND NEWDELHI_PRES NEWDELHI_CI NEWDELHI_DP NEWDELHI_POCI REUNION_LAT REUNION_LON REUNION_TYPE REUNION_WIND REUNION_PRES REUNION_TNUM REUNION_CI REUNION_RMW REUNION_R34_NE REUNION_R34_SE REUNION_R34_SW REUNION_R34_NW REUNION_R50_NE REUNION_R50_SE REUNION_R50_SW REUNION_R50_NW REUNION_R64_NE REUNION_R64_SE REUNION_R64_SW REUNION_R64_NW BOM_LAT BOM_LON BOM_TYPE BOM_WIND BOM_PRES BOM_TNUM BOM_CI BOM_RMW BOM_R34_NE BOM_R34_SE BOM_R34_SW BOM_R34_NW BOM_R50_NE BOM_R50_SE BOM_R50_SW BOM_R50_NW BOM_R64_NE BOM_R64_SE BOM_R64_SW BOM_R64_NW BOM_ROCI BOM_POCI BOM_EYE BOM_POS_METHOD BOM_PRES_METHOD NADI_LAT NADI_LON NADI_CAT NADI_WIND NADI_PRES WELLINGTON_LAT WELLINGTON_LON WELLINGTON_WIND WELLINGTON_PRES DS824_LAT DS824_LON DS824_STAGE DS824_WIND DS824_PRES TD9636_LAT TD9636_LON TD9636_STAGE TD9636_WIND TD9636_PRES TD9635_LAT TD9635_LON TD9635_WIND TD9635_PRES TD9635_ROCI NEUMANN_LAT NEUMANN_LON NEUMANN_CLASS NEUMANN_WIND NEUMANN_PRES MLC_LAT MLC_LON MLC_CLASS MLC_WIND MLC_PRES USA_GUST BOM_GUST BOM_GUST_PER REUNION_GUST REUNION_GUST_PER USA_SEAHGT USA_SEARAD_NE USA_SEARAD_SE USA_SEARAD_SW USA_SEARAD_NW STORM_SPEED STORM_DIR
1976277S08071 1977 122 SI MM AGATHE 1976-10-02 18:00:00 TS -8.20000 70.6000 main 1921 1915 O________OO___ jtwc_sh SH011977 -8.20000 70.6000 -1 -8.20000 70.6000 TC -8.20000 70.6000 7 17 123
1976277S08071 1977 122 SI MM AGATHE 1976-10-02 21:00:00 TS -8.66513 71.3147 main 1926 1917 P________PP___ SH011977 -8.69790 71.3495 -1 -8.69790 71.3495 TC -8.59959 71.2453 7 16 123
1976277S08071 1977 122 SI MM AGATHE 1976-10-03 00:00:00 TS -9.05296 71.9511 main 1926 1920 O________OP___ jtwc_sh SH011977 -9.10000 72.0000 -1 -9.10000 72.0000 TC -8.95887 71.8532 7 13 120
1976277S08071 1977 122 SI MM AGATHE 1976-10-03 03:00:00 TS -9.30110 72.4450 main 1925 1910 P________PP___ SH011977 -9.33234 72.4752 -1 -9.33234 72.4752 TC -9.23864 72.3847 7 8 112
1976277S08071 1977 122 SI MM AGATHE 1976-10-03 06:00:00 TS -9.34286 72.6857 reunion main 1910 1905 O____O___OO_O_ jtwc_sh SH011977 -9.40000 72.8000 -1 -9.00000 72.0000 3 9.90000 -9.40000 72.8000 TC 35 -9.40000 72.8000 2 -9.00000 72.0000 TC 35 4 84
1976277S08071 1977 122 SI MM AGATHE 1976-10-03 09:00:00 TS -9.26398 72.8068 main 1905 1885 P____P___PP_P_ SH011977 -9.33745 73.0526 -1 -8.96250 72.0500 3 -9.33745 73.0526 TC 35 -9.41854 73.0721 2 -8.96250 72.0500 TC 35 3 35
1976277S08071 1977 122 SI MM AGATHE 1976-10-03 12:00:00 TS -9.12820 72.8385 reunion main 1885 1875 O____O___OP_O_ jtwc_sh SH011977 -9.20000 73.2000 -1 -8.90000 72.1000 99 9.90000 -9.20000 73.2000 TC 35 -9.32692 73.2231 2 -8.90000 72.1000 TC 35 3 0
1976277S08071 1977 122 SI MM AGATHE 1976-10-03 15:00:00 TS -8.99436 72.8295 main 1875 1860 P____P___PP_P_ SH011977 -9.09998 73.2800 -1 -8.80000 72.1500 99 -9.09998 73.2800 TC 35 -9.17186 73.2875 2 -8.80000 72.1500 TC 35 3 0
1976277S08071 1977 122 SI MM AGATHE 1976-10-03 18:00:00 TS -8.88000 72.8600 reunion main 1860 1850 O____O___OO_O_ jtwc_sh SH011977 -9.00000 73.3000 -1 -8.70000 72.2000 99 9.90000 -9.00000 73.3000 TC 35 -9.00000 73.3000 2 -8.70000 72.2000 TC 35 2 20
1976277S08071 1977 122 SI MM AGATHE 1976-10-03 21:00:00 TS -8.80129 72.8970 main 1850 1840 P____P___PP_P_ SH011977 -8.90750 73.3150 -1 -8.64250 72.2500 99 -8.90750 73.3150 TC 30 -8.90647 73.3548 2 -8.64250 72.2500 TC 32 2 18
1976277S08071 1977 122 SI MM AGATHE 1976-10-04 00:00:00 TS -8.72047 72.9125 reunion main 1840 1830 O____O___OP_O_ jtwc_sh SH011977 -8.80000 73.3000 -1 -8.60000 72.3000 99 9.90000 -8.80000 73.3000 TC 25 -8.80235 73.3627 2 -8.60000 72.3000 TC 30 2 14
1976277S08071 1977 122 SI MM AGATHE 1976-10-04 03:00:00 TS -8.63840 72.9269 main 1830 1820 P____P___PP_P_ SH011977 -8.67248 73.2800 -1 -8.58749 72.3800 99 -8.67248 73.2800 TC 25 -8.67206 73.3142 2 -8.58749 72.3800 TC 30 2 350
1976277S08071 1977 122 SI MM AGATHE 1976-10-04 06:00:00 TS -8.50000 72.8800 reunion main 1820 1805 O____O___OO_O_ jtwc_sh SH011977 -8.50000 73.2000 -1 -8.50000 72.4000 2 9.90000 -8.50000 73.2000 TC 25 -8.50000 73.2000 1 -8.50000 72.4000 TC 30 4 334
1976277S08071 1977 122 SI MM AGATHE 1976-10-04 09:00:00 TS -8.25493 72.7391 main 1810 1786 P____P___PP_P_ SH011977 -8.27249 73.0375 -1 -8.24499 72.2950 2 -8.27249 73.0375 TC 25 -8.23969 73.0307 1 -8.24499 72.2950 TC 27 7 327
1976277S08071 1977 122 SI MM AGATHE 1976-10-04 12:00:00 TS -7.94850 72.5194 reunion main 1782 1763 O____O___OP_O_ jtwc_sh SH011977 -8.00000 72.8000 -1 -7.90000 72.1000 99 9.90000 -8.00000 72.8000 TC 25 -7.94248 72.7971 1 -7.90000 72.1000 TC 25 8 324
1976277S08071 1977 122 SI MM AGATHE 1976-10-04 15:00:00 TS -7.61179 72.2640 main 1763 1752 P____P___PP_P_ SH011977 -7.67749 72.5224 -1 -7.52748 71.8800 99 -7.67749 72.5224 TC 25 -7.64903 72.5151 1 -7.52748 71.8800 TC 25 8 319
1976277S08071 1977 122 SI MM AGATHE 1976-10-04 18:00:00 TS -7.32000 71.9600 reunion main 1752 1752 O____O___OO_O_ jtwc_sh SH011977 -7.40000 72.2000 -1 -7.20000 71.6000 99 9.90000 -7.40000 72.2000 TC 25 -7.40000 72.2000 1 -7.20000 71.6000 TC 25 8 305
1976277S08071 1977 122 SI MM AGATHE 1976-10-04 21:00:00 TS -7.16730 71.6300 main 1766 1757 P____P___PP_P_ SH011977 -7.26999 71.8576 -1 -7.02747 71.2801 99 -7.26999 71.8576 TC 25 -7.24161 71.8748 1 -7.02747 71.2801 TC 25 7 290
1976277S08071 1977 122 SI MM AGATHE 1976-10-05 00:00:00 TS -7.06651 71.2645 reunion main 1775 1773 O____O___OP_O_ jtwc_sh SH011977 -7.20000 71.5000 -1 -6.90000 70.9000 99 9.90000 -7.20000 71.5000 TC 25 -7.13256 71.5227 1 -6.90000 70.9000 TC 25 8 288
1976277S08071 1977 122 SI MM AGATHE 1976-10-05 03:00:00 TS -6.92547 70.8568 main 1783 1783 P____P___PP_P_ SH011977 -7.09997 71.1500 -1 -6.68510 70.4124 99 -7.09997 71.1500 TC 25 -7.05722 71.1592 1 -6.68510 70.4124 TC 27 8 289
1976277S08071 1977 122 SI MM AGATHE 1976-10-05 06:00:00 TS -6.80000 70.4800 reunion main 1800 1800 O____O___OO_O_ jtwc_sh SH011977 -7.00000 70.8000 -1 -6.50000 70.0000 2 9.90000 -7.00000 70.8000 TC 25 -7.00000 70.8000 1 -6.50000 70.0000 TC 30 7 289
1976277S08071 1977 122 SI MM AGATHE 1976-10-05 09:00:00 TS -6.70881 70.2120 main 1812 1812 P____P___PP_P_ SH011977 -6.88499 70.4425 -1 -6.42743 69.8476 2 -6.88499 70.4425 TC 25 -6.91922 70.4800 1 -6.42743 69.8476 TC 30 5 287
1976277S08071 1977 122 SI MM AGATHE 1976-10-05 12:00:00 TS -6.65096 69.9930 reunion main 1826 1817 O____O___OP_O_ jtwc_sh SH011977 -6.80000 70.1000 -1 -6.40000 69.8000 99 9.90000 -6.80000 70.1000 TC 25 -6.85478 70.1650 1 -6.40000 69.8000 TC 30 4 282
1976277S08071 1977 122 SI MM AGATHE 1976-10-05 15:00:00 TS -6.61356 69.7775 main 1831 1831 P____P___PP_P_ SH011977 -6.77742 69.8150 -1 -6.34999 69.7075 99 -6.77742 69.8150 TC 25 -6.81296 69.8425 1 -6.34999 69.7075 TC 30 5 276
1976277S08071 1977 122 SI MM AGATHE 1976-10-05 18:00:00 TS -6.60000 69.5400 reunion main 1852 1852 O____O___OO_O_ jtwc_sh SH011977 -6.80000 69.5000 -1 -6.30000 69.6000 99 9.90000 -6.80000 69.5000 TC 25 -6.80000 69.5000 1 -6.30000 69.6000 TC 30 6 271
1976277S08071 1977 122 SI MM AGATHE 1976-10-05 21:00:00 TS -6.60430 69.2230 main 1874 1874 P____P___PP_P_ SH011977 -6.84255 69.0575 -1 -6.25750 69.4575 99 -6.84255 69.0575 TC 25 -6.82141 69.0851 1 -6.25750 69.4575 TC 30 6 269
1976277S08071 1977 122 SI MM AGATHE 1976-10-06 00:00:00 TS -6.61405 68.8910 reunion main 1892 1892 O____O___OP_O_ jtwc_sh SH011977 -6.90000 68.6000 -1 -6.20000 69.3000 99 9.90000 -6.90000 68.6000 TC 25 -6.87024 68.6552 1 -6.20000 69.3000 TC 30 6 270
1976277S08071 1977 122 SI MM AGATHE 1976-10-06 03:00:00 TS -6.60677 68.5975 main 1909 1902 P____P___PP_P_ SH011977 -6.94999 68.2050 -1 -6.09998 69.1650 99 -6.94999 68.2050 TC 25 -6.93392 68.2476 1 -6.09998 69.1650 TC 30 5 271
1976277S08071 1977 122 SI MM AGATHE 1976-10-06 06:00:00 TS -6.60000 68.3400 reunion main 1895 1882 O____O___OO_O_ jtwc_sh SH011977 -7.00000 67.9000 -1 -6.00000 69.0000 2 9.90000 -7.00000 67.9000 TC 25 -7.00000 67.9000 1 -6.00000 69.0000 TC 30 5 270
1976277S08071 1977 122 SI MM AGATHE 1976-10-06 09:00:00 TS -6.60694 68.1291 main 1882 1869 P____P___PP_P_ SH011977 -7.04994 67.7275 -1 -5.94251 68.7650 2 -7.04994 67.7275 TC 25 -7.04979 67.6603 1 -5.94251 68.7650 TC 30 4 267
1976277S08071 1977 122 SI MM AGATHE 1976-10-06 12:00:00 TS -6.61995 67.9365 reunion main 1869 1857 O____O___OP_O_ jtwc_sh SH011977 -7.10000 67.6000 -1 -5.90000 68.5000 99 9.90000 -7.10000 67.6000 TC 25 -7.09975 67.4825 1 -5.90000 68.5000 TC 30 4 267
1976277S08071 1977 122 SI MM AGATHE 1976-10-06 15:00:00 TS -6.62997 67.7277 main 1857 1835 P____P___PP_P_ SH011977 -7.15001 67.4000 -1 -5.84999 68.2500 99 -7.15001 67.4000 TC 25 -7.14985 67.3384 1 -5.84999 68.2500 TC 30 5 256
1976277S08071 1977 122 SI MM AGATHE 1976-10-06 18:00:00 TS -6.73333 67.4667 reunion main 1835 1798 O____O___OO_O_ jtwc_sh SH011977 -7.20000 67.2000 -1 -5.80000 68.0000 99 9.90000 -7.20000 67.2000 TC 25 -7.20000 67.2000 1 -5.80000 68.0000 TC 30 6 244
1976277S08071 1977 122 SI MM AGATHE 1976-10-06 21:00:00 TS -6.87585 67.2167 main 1798 1767 P____P___PP_P_ SH011977 -7.24998 67.0500 -1 -5.74631 67.7510 99 -7.24998 67.0500 TC 25 -7.24594 67.0169 1 -5.74631 67.7510 TC 32 6 236
1976277S08071 1977 122 SI MM AGATHE 1976-10-07 00:00:00 TS -7.06929 66.9671 reunion main 1767 1730 O____O___OP_O_ jtwc_sh SH011977 -7.30000 66.9000 -1 -5.70000 67.5000 99 9.90000 -7.30000 66.9000 TC 25 -7.29250 66.8350 1 -5.70000 67.5000 TC 35 7 228
1976277S08071 1977 122 SI MM AGATHE 1976-10-07 03:00:00 TS -7.34761 66.6869 main 1730 1709 P________PP___ SH011977 -7.35001 66.7000 -1 99 -7.35001 66.7000 TC 25 -7.34282 66.6606 1 TC 6 234
1976277S08071 1977 122 SI MM AGATHE 1976-10-07 06:00:00 TS -7.40000 66.5000 reunion main 1709 1703 O________OO___ jtwc_sh SH011977 -7.40000 66.5000 -1 99 -7.40000 66.5000 TC 25 -7.40000 66.5000 1 TC 4 253
1976277S08071 1977 122 SI MM AGATHE 1976-10-07 09:00:00 TS -7.45092 66.3449 main 1687 1681 P________PP___ SH011977 -7.44249 66.3350 -1 99 -7.44249 66.3350 TC 25 -7.46777 66.3647 1 TC 3 248
1976277S08071 1977 122 SI MM AGATHE 1976-10-07 12:00:00 TS -7.51415 66.2142 reunion main 1681 1666 O________OP___ jtwc_sh SH011977 -7.50000 66.2000 -1 99 -7.50000 66.2000 TC 25 -7.54244 66.2425 1 TC 3 236
1976277S08071 1977 122 SI MM AGATHE 1976-10-07 15:00:00 TS -7.60696 66.1080 main 1666 1651 P________PP___ SH011977 -7.59999 66.1000 -1 99 -7.59999 66.1000 TC 25 -7.62090 66.1240 1 TC 3 229
1976277S08071 1977 122 SI MM AGATHE 1976-10-07 18:00:00 TS -7.70000 66.0000 reunion main 1651 1635 O________OO___ jtwc_sh SH011977 -7.70000 66.0000 -1 99 -7.70000 66.0000 TC 25 -7.70000 66.0000 1 TC 3 239
1976277S08071 1977 122 SI MM AGATHE 1976-10-07 21:00:00 TS -7.75425 65.8641 main 1635 1624 P________PP___ SH011977 -7.75000 65.8575 -1 99 -7.75000 65.8575 TC 25 -7.76275 65.8774 1 TC 3 249
1976277S08071 1977 122 SI MM AGATHE 1976-10-08 00:00:00 TS -7.80913 65.7150 reunion main 1624 1609 O________OP___ jtwc_sh SH011977 -7.80000 65.7000 -1 99 -7.80000 65.7000 TC 25 -7.82739 65.7449 1 TC 3 245
1976277S08071 1977 122 SI MM AGATHE 1976-10-08 03:00:00 TS -7.89111 65.5683 main 1609 1588 P________PP___ SH011977 -7.88499 65.5575 -1 99 -7.88499 65.5575 TC 25 -7.90334 65.5899 1 TC 4 238
1976277S08071 1977 122 SI MM AGATHE 1976-10-08 06:00:00 TS -8.00000 65.4000 reunion main 1588 1567 O________OO___ jtwc_sh SH011977 -8.00000 65.4000 -1 99 -8.00000 65.4000 TC 25 -8.00000 65.4000 1 TC 4 235
1976277S08071 1977 122 SI MM AGATHE 1976-10-08 09:00:00 TS -8.14047 65.2137 main 1567 1536 P________PP___ SH011977 -8.14246 65.2300 -1 99 -8.14246 65.2300 TC 25 -8.13650 65.1813 1 TC 5 235
1976277S08071 1977 122 SI MM AGATHE 1976-10-08 12:00:00 TS -8.29746 64.9750 reunion main 1536 1510 O________OP___ jtwc_sh SH011977 -8.30000 65.0000 -1 99 -8.30000 65.0000 TC 25 -8.29237 64.9250 1 TC 6 240
1976277S08071 1977 122 SI MM AGATHE 1976-10-08 15:00:00 TS -8.45069 64.6637 main 1501 1470 P________PP___ SH011977 -8.45000 64.6800 -1 99 -8.45000 64.6800 TC 25 -8.45207 64.6313 1 TC 7 246
1976277S08071 1977 122 SI MM AGATHE 1976-10-08 18:00:00 TS -8.60000 64.3000 reunion main 1470 1439 O________OO___ jtwc_sh SH011977 -8.60000 64.3000 -1 99 -8.60000 64.3000 TC 25 -8.60000 64.3000 1 TC 8 247
1976277S08071 1977 122 SI MM AGATHE 1976-10-08 21:00:00 TS -8.75760 63.9170 main 1429 1400 P________PP___ SH011977 -8.76498 63.9075 -1 99 -8.76498 63.9075 TC 25 -8.74285 63.9361 1 TC 8 250
1976277S08071 1977 122 SI MM AGATHE 1976-10-09 00:00:00 TS -8.88918 63.5126 reunion main 1400 1371 O________OP___ jtwc_sh SH011977 -8.90000 63.5000 -1 99 -8.90000 63.5000 TC 25 -8.86754 63.5377 1 TC 8 255
1976277S08071 1977 122 SI MM AGATHE 1976-10-09 03:00:00 TS -8.97279 63.1068 main 1371 1353 P________PP___ SH011977 -8.97996 63.1000 -1 99 -8.97996 63.1000 TC 25 -8.95845 63.1205 1 TC 8 262
1976277S08071 1977 122 SI MM AGATHE 1976-10-09 06:00:00 TS -9.00000 62.7000 reunion main 1353 1337 O________OO___ jtwc_sh SH011977 -9.00000 62.7000 -1 99 -9.00000 62.7000 TC 25 -9.00000 62.7000 1 TC 8 270
1976277S08071 1977 122 SI MM AGATHE 1976-10-09 09:00:00 TS -8.97475 62.2959 main 1337 1329 P________PP___ SH011977 -8.97246 62.3000 -1 99 -8.97246 62.3000 TC 25 -8.97933 62.2876 1 TC 8 277
1976277S08071 1977 122 SI MM AGATHE 1976-10-09 12:00:00 TS -8.90332 61.8924 reunion main 1332 1328 O________OP___ jtwc_sh SH011977 -8.90000 61.9000 -1 99 -8.90000 61.9000 TC 25 -8.90996 61.8772 1 TC 9 290
1976277S08071 1977 122 SI MM AGATHE 1976-10-09 15:00:00 TS -8.67587 61.4466 main 1336 1323 P________PP___ SH011977 -8.80748 61.4925 -1 99 -8.80748 61.4925 TC 25 -8.81060 61.4783 1 TC 9 295
1976277S08071 1977 122 SI MM AGATHE 1976-10-09 18:00:00 TS -8.52500 61.0750 reunion main 1323 1293 O____O___OO_O_ jtwc_sh SH011977 -8.70000 61.1000 -1 -8.00000 61.0000 99 9.90000 -8.70000 61.1000 TC 25 -8.70000 61.1000 1 -8.00000 61.0000 TC 40 7 287
1976277S08071 1977 122 SI MM AGATHE 1976-10-09 21:00:00 TS -8.45585 60.7325 main 1283 1258 P____P___PP_P_ SH011977 -8.59997 60.7350 -1 -8.15797 60.7001 99 -8.59997 60.7350 TC 25 -8.61513 60.7535 1 -8.15797 60.7001 TC 40 7 279
1976277S08071 1977 122 SI MM AGATHE 1976-10-10 00:00:00 TS -8.42445 60.4055 reunion main 1258 1228 O____O___OP_O_ jtwc_sh SH011977 -8.50000 60.4000 -1 -8.30000 60.4000 99 9.90000 -8.50000 60.4000 TC 25 -8.52227 60.4276 1 -8.30000 60.4000 TC 40 6 273
1976277S08071 1977 122 SI MM AGATHE 1976-10-10 03:00:00 TS -8.41862 60.1056 main 1228 1198 P____P___PP_P_ SH011977 -8.40746 60.0925 -1 -8.42994 60.1150 99 -8.40746 60.0925 TC 30 -8.41828 60.1129 1 -8.42994 60.1150 TC 40 6 274
1976277S08071 1977 122 SI MM AGATHE 1976-10-10 06:00:00 TS -8.38000 59.8000 reunion main 1198 1174 O____O___OO_O_ jtwc_sh SH011977 -8.30000 59.8000 -1 -8.50000 59.8000 3 9.90000 -8.30000 59.8000 TC 35 -8.30000 59.8000 2 -8.50000 59.8000 TC 40 6 281
1976277S08071 1977 122 SI MM AGATHE 1976-10-10 09:00:00 TS -8.29684 59.4640 main 1174 1140 P____P___PP_P_ SH011977 -8.15746 59.5075 -1 -8.50250 59.4150 3 -8.15746 59.5075 TC 35 -8.16430 59.4750 2 -8.50250 59.4150 TC 40 7 288
1976277S08071 1977 122 SI MM AGATHE 1976-10-10 12:00:00 TS -8.16298 59.1100 reunion main 1140 1123 O____O___OP_O_ jtwc_sh SH011977 -8.00000 59.2000 -1 -8.40000 59.0000 99 9.90000 -8.00000 59.2000 TC 35 -8.01490 59.1500 2 -8.40000 59.0000 TC 40 8 293
1976277S08071 1977 122 SI MM AGATHE 1976-10-10 15:00:00 TS -7.98960 58.7420 main 1113 1097 P____P___PP_P_ SH011977 -7.85001 58.8500 -1 -8.19498 58.5925 99 -7.85001 58.8500 TC 35 -7.85805 58.8250 2 -8.19498 58.5925 TC 40 8 298
1976277S08071 1977 122 SI MM AGATHE 1976-10-10 18:00:00 TS -7.78000 58.3800 reunion main 1097 1082 O____O___OO_O_ jtwc_sh SH011977 -7.70000 58.5000 -1 -7.90000 58.2000 99 9.90000 -7.70000 58.5000 TC 35 -7.70000 58.5000 2 -7.90000 58.2000 TC 40 8 303
1976277S08071 1977 122 SI MM AGATHE 1976-10-10 21:00:00 TS -7.54175 58.0545 main 1088 1066 P____P___PP_P_ SH011977 -7.54995 58.2000 -1 -7.52746 57.8425 99 -7.54995 58.2000 TC 35 -7.55392 58.1873 2 -7.52746 57.8425 TC 40 8 306
1976277S08071 1977 122 SI MM AGATHE 1976-10-11 00:00:00 TS -7.32146 57.7345 reunion main 1062 1040 O____O___OP_O_ jtwc_sh SH011977 -7.40000 57.9000 -1 -7.20000 57.5000 99 9.90000 -7.40000 57.9000 TC 35 -7.40730 57.8727 2 -7.20000 57.5000 TC 40 8 300
1976277S08071 1977 122 SI MM AGATHE 1976-10-11 03:00:00 TS -7.17038 57.3984 main 1040 1019 P____P___PP_P_ SH011977 -7.24997 57.5650 -1 -7.04746 57.1576 99 -7.24997 57.5650 TC 35 -7.25703 57.5467 2 -7.04746 57.1576 TC 40 7 291
1976277S08071 1977 122 SI MM AGATHE 1976-10-11 06:00:00 TS -7.06000 57.0400 reunion main 1010 990 O____O___OO_O_ jtwc_sh SH011977 -7.10000 57.2000 -1 -7.00000 56.8000 3 9.90000 -7.10000 57.2000 TC 35 -7.10000 57.2000 2 -7.00000 56.8000 TC 40 8 286
1976277S08071 1977 122 SI MM AGATHE 1976-10-11 09:00:00 TS -6.96179 56.6511 main 990 961 P____P___PP_P_ SH011977 -6.95748 56.8075 -1 -6.98498 56.4075 3 -6.95748 56.8075 TC 35 -6.92402 56.8256 2 -6.98498 56.4075 TC 40 8 284
1976277S08071 1977 122 SI MM AGATHE 1976-10-11 12:00:00 TS -6.86849 56.2460 reunion main 953 935 O____O___OP_O_ jtwc_sh SH011977 -6.80000 56.4000 -1 -7.00000 56.0000 99 9.90000 -6.80000 56.4000 TC 35 -6.74244 56.4300 2 -7.00000 56.0000 TC 40 8 285
1976277S08071 1977 122 SI MM AGATHE 1976-10-11 15:00:00 TS -6.75291 55.8409 main 926 909 P____P___PP_P_ SH011977 -6.59995 56.0075 -1 -7.00000 55.5850 99 -6.59995 56.0075 TC 35 -6.56463 56.0193 2 -7.00000 55.5850 TC 37 8 286
1976277S08071 1977 122 SI MM AGATHE 1976-10-11 18:00:00 TS -6.64000 55.4400 reunion main 909 885 O____O___OO_O_ jtwc_sh SH011977 -6.40000 55.6000 -1 -7.00000 55.2000 99 9.90000 -6.40000 55.6000 TC 35 -6.40000 55.6000 2 -7.00000 55.2000 TC 35 8 285
1976277S08071 1977 122 SI MM AGATHE 1976-10-11 21:00:00 TS -6.54367 55.0472 main 886 863 P____P___PP_P_ SH011977 -6.23500 55.1500 -1 -6.99995 54.8850 99 -6.23500 55.1500 TC 30 -6.24845 55.1660 2 -6.99995 54.8850 TC 35 8 283
1976277S08071 1977 122 SI MM AGATHE 1976-10-12 00:00:00 TS -6.46251 54.6655 reunion main 863 842 O____O___OP_O_ jtwc_sh SH011977 -6.10000 54.7000 -1 -7.00000 54.6000 99 9.90000 -6.10000 54.7000 TC 25 -6.11253 54.7275 2 -7.00000 54.6000 TC 35 8 281
1976277S08071 1977 122 SI MM AGATHE 1976-10-12 03:00:00 TS -6.39305 54.2941 main 842 820 P____P___PP_P_ SH011977 -5.98497 54.2850 -1 -6.99998 54.3000 99 -5.98497 54.2850 TC 25 -5.99534 54.3003 2 -6.99998 54.3000 TC 35 7 280
1976277S08071 1977 122 SI MM AGATHE 1976-10-12 06:00:00 TS -6.34000 53.9400 reunion main 822 803 O____O___OO_O_ jtwc_sh SH011977 -5.90000 53.9000 -1 -7.00000 54.0000 3 9.90000 -5.90000 53.9000 TC 25 -5.90000 53.9000 1 -7.00000 54.0000 TC 35 7 277
1976277S08071 1977 122 SI MM AGATHE 1976-10-12 09:00:00 TS -6.30264 53.6011 main 803 784 P____P___PP_P_ SH011977 -5.84248 53.5350 -1 -6.99999 53.6925 3 -5.84248 53.5350 TC 25 -5.82827 53.5504 1 -6.99999 53.6925 TC 35 7 276
1976277S08071 1977 122 SI MM AGATHE 1976-10-12 12:00:00 TS -6.27546 53.2855 reunion main 784 766 O____O___OP_O_ jtwc_sh SH011977 -5.80000 53.2000 -1 -7.00000 53.4000 99 9.90000 -5.80000 53.2000 TC 25 -5.77729 53.2277 1 -7.00000 53.4000 TC 35 6 275
1976277S08071 1977 122 SI MM AGATHE 1976-10-12 15:00:00 TS -6.25350 53.0032 main 766 759 P____P___PP_P_ SH011977 -5.74996 52.9000 -1 -7.01496 53.1500 99 -5.74996 52.9000 TC 25 -5.73767 52.9160 1 -7.01496 53.1500 TC 35 6 276
1976277S08071 1977 122 SI MM AGATHE 1976-10-12 18:00:00 TS -6.22000 52.7200 reunion main 759 743 O____O___OO_O_ jtwc_sh SH011977 -5.70000 52.6000 -1 -7.00000 52.9000 99 9.90000 -5.70000 52.6000 TC 25 -5.70000 52.6000 1 -7.00000 52.9000 TC 35 6 279
1976277S08071 1977 122 SI MM AGATHE 1976-10-12 21:00:00 TS -6.15381 52.3936 main 743 739 P____P___PP_P_ SH011977 -5.64999 52.2575 -1 -6.90751 52.6000 99 -5.64999 52.2575 TC 25 -5.65404 52.2532 1 -6.90751 52.6000 TC 35 7 282
1976277S08071 1977 122 SI MM AGATHE 1976-10-13 00:00:00 TS -6.08149 52.0600 reunion main 739 726 O____O___OP_O_ jtwc_sh SH011977 -5.60000 51.9000 -1 -6.80000 52.3000 99 9.90000 -5.60000 51.9000 TC 25 -5.60747 51.9000 1 -6.80000 52.3000 TC 35 6 280
1976277S08071 1977 122 SI MM AGATHE 1976-10-13 03:00:00 TS -6.04039 51.7584 main 736 724 P____P___PP_P_ SH011977 -5.54999 51.5425 -1 -6.77240 52.0801 99 -5.54999 51.5425 TC 25 -5.55716 51.5469 1 -6.77240 52.0801 TC 35 6 279
1976277S08071 1977 122 SI MM AGATHE 1976-10-13 06:00:00 TS -5.98000 51.4400 reunion main 721 717 O____O___OO_O_ jtwc_sh SH011977 -5.50000 51.2000 -1 -6.70000 51.8000 3 9.90000 -5.50000 51.2000 TC 25 -5.50000 51.2000 1 -6.70000 51.8000 TC 35 7 285
1976277S08071 1977 122 SI MM AGATHE 1976-10-13 09:00:00 TS -5.85241 51.0726 main 722 722 P____P___PP_P_ SH011977 -5.45746 50.9000 -1 -6.45754 51.3374 3 -5.45746 50.9000 TC 25 -5.43203 50.8881 1 -6.45754 51.3374 TC 35 8 289
1976277S08071 1977 122 SI MM AGATHE 1976-10-13 12:00:00 TS -5.71145 50.6760 reunion main 733 728 O____O___OP_O_ jtwc_sh SH011977 -5.40000 50.6000 -1 -6.20000 50.8000 99 9.90000 -5.40000 50.6000 TC 25 -5.35727 50.5800 1 -6.20000 50.8000 TC 35 8 287
1976277S08071 1977 122 SI MM AGATHE 1976-10-13 15:00:00 TS -5.61274 50.2804 main 736 732 P____P___PP_P_ SH011977 -5.29996 50.2725 -1 -6.09245 50.3001 99 -5.29996 50.2725 TC 25 -5.27889 50.2569 1 -6.09245 50.3001 TC 35 8 283
1976277S08071 1977 122 SI MM AGATHE 1976-10-13 18:00:00 TS -5.52000 49.8600 reunion main 742 739 O____O___OO_O_ jtwc_sh SH011977 -5.20000 49.9000 -1 -6.00000 49.8000 99 9.90000 -5.20000 49.9000 TC 25 -5.20000 49.9000 1 -6.00000 49.8000 TC 35 9 283
1976277S08071 1977 122 SI MM AGATHE 1976-10-13 21:00:00 TS -5.41700 49.3972 main 750 750 P____P___PP_P_ SH011977 -5.15000 49.4650 -1 -5.82999 49.2850 99 -5.15000 49.4650 TC 25 -5.12502 49.4859 1 -5.82999 49.2850 TC 32 10 286
1976277S08071 1977 122 SI MM AGATHE 1976-10-14 00:00:00 TS -5.25556 48.9417 reunion main 762 762 O____O___OP_O_ jtwc_sh SH011977 -5.10000 49.0000 -1 -5.60000 48.8000 99 9.90000 -5.10000 49.0000 TC 25 -5.05002 49.0375 1 -5.60000 48.8000 TC 30 9 291
1976277S08071 1977 122 SI MM AGATHE 1976-10-14 03:00:00 TS -5.07249 48.5126 main 787 787 P____P___PP_P_ SH011977 -4.99997 48.5500 -1 -5.31503 48.3799 99 -4.99997 48.5500 TC 25 -4.97500 48.5703 1 -5.31503 48.3799 TC 30 9 292
1976277S08071 1977 122 SI MM AGATHE 1976-10-14 06:00:00 TS -4.91429 48.0857 reunion main 797 757 O____O___OO_O_ jtwc_sh SH011977 -4.90000 48.1000 -1 -5.00000 48.0000 6 9.90000 -4.90000 48.1000 TC 25 -4.90000 48.1000 1 -5.00000 48.0000 TC 30 9 285
1976277S08071 1977 122 SI MM AGATHE 1976-10-14 09:00:00 TS -4.84164 47.6446 main 749 713 P________PP___ SH011977 -4.84997 47.6500 -1 6 -4.84997 47.6500 TC 25 -4.82498 47.6338 1 TC 9 278
1976277S08071 1977 122 SI MM AGATHE 1976-10-14 12:00:00 TS -4.78333 47.1900 main 713 671 O________OP___ jtwc_sh SH011977 -4.80000 47.2000 -1 -4.80000 47.2000 TC 25 -4.74999 47.1700 1 9 279
1976277S08071 1977 122 SI MM AGATHE 1976-10-14 15:00:00 TS -4.69166 46.7354 main 662 619 P________PP___ SH011977 -4.69999 46.7425 -1 -4.69999 46.7425 TC 25 -4.67500 46.7213 1 9 282
1976277S08071 1977 122 SI MM AGATHE 1976-10-14 18:00:00 TS -4.60000 46.3000 main 619 578 O________OO___ jtwc_sh SH011977 -4.60000 46.3000 -1 -4.60000 46.3000 TC 25 -4.60000 46.3000 1 9 280
1976277S08071 1977 122 SI MM AGATHE 1976-10-14 21:00:00 TS -4.54166 45.8900 main 578 544 P________PP___ SH011977 -4.54999 45.8775 -1 -4.54999 45.8775 TC 25 -4.52502 45.9150 1 8 279
1976277S08071 1977 122 SI MM AGATHE 1976-10-15 00:00:00 TS -4.48335 45.5200 main 544 510 O________OP___ jtwc_sh SH011977 -4.50000 45.5000 -1 -4.50000 45.5000 TC 25 -4.45005 45.5600 1 7 282
1976277S08071 1977 122 SI MM AGATHE 1976-10-15 03:00:00 TS -4.40003 45.1966 main 510 475 P________PP___ SH011977 -4.41251 45.1825 -1 -4.41251 45.1825 TC 25 -4.37506 45.2250 1 6 287
1976277S08071 1977 122 SI MM AGATHE 1976-10-15 06:00:00 TS -4.30000 44.9000 main 475 O________OO___ jtwc_sh SH011977 -4.30000 44.9000 -1 -4.30000 44.9000 TC 25 -4.30000 44.9000 1 6 289

About IBTrACS Database

This database is a web-friendly format of International Best Track Archive for Climate Stewardship (IBTrACS), a global best track data archive curated by NOAA dating back to 1842.

Updated: 2021-10-21